createdAt,value
2023-01-08T00:01:14.886Z,100521.47
2023-01-08T00:03:39.922Z,100522.13
2023-01-08T00:06:04.540Z,100523.69
2023-01-08T00:08:28.050Z,100515.88
2023-01-08T00:10:56.769Z,100520.03
2023-01-08T00:13:21.671Z,100506.34
2023-01-08T00:15:45.254Z,100503.91
2023-01-08T00:18:08.818Z,100506.88
2023-01-08T00:20:32.434Z,100500.41
2023-01-08T00:22:55.959Z,100502.56
2023-01-08T00:25:20.780Z,100507.72
2023-01-08T00:27:44.516Z,100500.56
2023-01-08T00:30:11.160Z,100502.72
2023-01-08T00:32:34.760Z,100501.78
2023-01-08T00:34:58.379Z,100501.75
2023-01-08T00:37:22.103Z,100496.88
2023-01-08T00:39:45.914Z,100488.47
2023-01-08T00:42:09.457Z,100488.38
2023-01-08T00:44:33.150Z,100483.00
2023-01-08T00:46:58.070Z,100478.25
2023-01-08T00:49:21.769Z,100470.56
2023-01-08T00:51:45.424Z,100464.13
2023-01-08T00:54:10.398Z,100458.91
2023-01-08T00:56:33.938Z,100463.75
2023-01-08T00:58:57.653Z,100457.69
2023-01-08T01:01:21.282Z,100460.97
2023-01-08T01:03:46.386Z,100471.44
2023-01-08T01:06:11.309Z,100457.44
2023-01-08T01:08:35.545Z,100461.22
2023-01-08T01:10:59.080Z,100456.34
2023-01-08T01:13:22.727Z,100456.31
2023-01-08T01:15:46.253Z,100459.59
2023-01-08T01:18:10.430Z,100458.94
2023-01-08T01:20:35.335Z,100452.91
2023-01-08T01:22:59.327Z,100460.13
2023-01-08T01:25:22.907Z,100460.09
2023-01-08T01:27:47.077Z,100457.19
2023-01-08T01:30:12.110Z,100453.03
2023-01-08T01:32:35.705Z,100450.41
2023-01-08T01:34:59.221Z,100449.41
2023-01-08T01:37:24.256Z,100439.13
2023-01-08T01:39:47.807Z,100442.69
2023-01-08T01:42:36.571Z,100446.88
2023-01-08T01:45:00.334Z,100449.56
2023-01-08T01:47:29.037Z,100441.38
2023-01-08T01:49:59.110Z,100443.03
2023-01-08T01:52:25.222Z,100440.22
2023-01-08T01:54:49.565Z,100424.03
2023-01-08T01:57:13.259Z,100426.50
2023-01-08T01:59:36.837Z,100428.13
2023-01-08T02:02:01.897Z,100435.00
2023-01-08T02:04:25.608Z,100427.88
2023-01-08T02:06:58.912Z,100422.41
2023-01-08T02:09:37.141Z,100423.56
2023-01-08T02:12:26.958Z,100421.19
2023-01-08T02:15:01.793Z,100417.44
2023-01-08T02:17:34.152Z,100414.00
2023-01-08T02:20:05.308Z,100400.22
2023-01-08T02:22:46.972Z,100394.63
2023-01-08T02:25:21.177Z,100383.22
2023-01-08T02:27:50.469Z,100371.84
2023-01-08T02:30:14.352Z,100375.34
2023-01-08T02:32:40.046Z,100371.59
2023-01-08T02:35:04.746Z,100380.00
2023-01-08T02:37:28.359Z,100382.47
2023-01-08T02:40:12.138Z,100371.72
2023-01-08T02:42:46.358Z,100371.16
2023-01-08T02:45:22.968Z,100383.78
2023-01-08T02:47:51.024Z,100370.25
2023-01-08T02:50:20.759Z,100366.66
2023-01-08T02:52:54.597Z,100365.13
2023-01-08T02:55:20.970Z,100362.91
2023-01-08T02:57:46.023Z,100361.44
2023-01-08T03:00:12.023Z,100354.09
2023-01-08T03:02:39.156Z,100349.34
2023-01-08T03:05:09.237Z,100338.94
2023-01-08T03:07:33.599Z,100336.69
2023-01-08T03:09:57.239Z,100344.31
2023-01-08T03:12:26.744Z,100334.28
2023-01-08T03:14:57.524Z,100336.78
2023-01-08T03:17:25.940Z,100334.91
2023-01-08T03:19:53.732Z,100328.19
2023-01-08T03:22:19.629Z,100328.81
2023-01-08T03:24:45.307Z,100329.88
2023-01-08T03:27:13.756Z,100330.53
2023-01-08T03:29:39.383Z,100330.03
2023-01-08T03:32:10.098Z,100335.81
2023-01-08T03:34:36.804Z,100341.66
2023-01-08T03:37:04.554Z,100326.84
2023-01-08T03:39:32.824Z,100327.06
2023-01-08T03:42:00.858Z,100328.28
2023-01-08T03:44:24.530Z,100321.91
2023-01-08T03:46:54.113Z,100319.97
2023-01-08T03:49:21.246Z,100314.63
2023-01-08T03:51:48.076Z,100319.09
2023-01-08T03:54:15.653Z,100323.28
2023-01-08T03:56:39.208Z,100324.25
2023-01-08T03:59:02.811Z,100330.53
2023-01-08T04:01:26.518Z,100324.44
2023-01-08T04:03:50.158Z,100326.22
2023-01-08T04:06:15.090Z,100334.94
2023-01-08T04:08:38.691Z,100340.38
2023-01-08T04:11:02.191Z,100335.13
2023-01-08T04:13:25.825Z,100325.38
2023-01-08T04:15:50.436Z,100325.66
2023-01-08T04:18:14.065Z,100336.44
2023-01-08T04:20:37.583Z,100335.13
2023-01-08T04:23:02.551Z,100333.97
2023-01-08T04:25:26.132Z,100338.09
2023-01-08T04:27:49.730Z,100327.44
2023-01-08T04:30:14.300Z,100325.28
2023-01-08T04:32:37.941Z,100327.53
2023-01-08T04:35:01.437Z,100326.13
2023-01-08T04:37:25.058Z,100307.28
2023-01-08T04:39:49.965Z,100304.50
2023-01-08T04:42:13.681Z,100304.63
2023-01-08T04:44:37.401Z,100291.41
2023-01-08T04:47:00.983Z,100281.06
2023-01-08T04:49:24.524Z,100286.91
2023-01-08T04:51:48.101Z,100286.41
2023-01-08T04:54:11.621Z,100297.19
2023-01-08T04:56:36.574Z,100284.56
2023-01-08T04:59:00.262Z,100287.19
2023-01-08T05:01:27.045Z,100288.81
2023-01-08T05:03:55.100Z,100295.50
2023-01-08T05:06:18.654Z,100297.91
2023-01-08T05:08:42.273Z,100297.59
2023-01-08T05:11:06.295Z,100284.91
2023-01-08T05:13:31.737Z,100282.47
2023-01-08T05:15:55.400Z,100281.84
2023-01-08T05:18:18.937Z,100294.94
2023-01-08T05:20:42.541Z,100276.50
2023-01-08T05:23:06.043Z,100276.50
2023-01-08T05:25:29.723Z,100263.34
2023-01-08T05:27:54.765Z,100268.25
2023-01-08T05:30:19.940Z,100256.25
2023-01-08T05:32:43.503Z,100267.94
2023-01-08T05:35:08.272Z,100263.19
2023-01-08T05:37:31.843Z,100261.34
2023-01-08T05:39:55.436Z,100266.34
2023-01-08T05:42:19.008Z,100266.03
2023-01-08T05:44:42.581Z,100258.28
2023-01-08T05:47:07.564Z,100259.75
2023-01-08T05:49:31.233Z,100257.97
2023-01-08T05:51:54.786Z,100253.25
2023-01-08T05:54:18.670Z,100254.84
2023-01-08T05:56:43.998Z,100250.91
2023-01-08T05:59:07.837Z,100245.91
2023-01-08T06:01:31.399Z,100249.19
2023-01-08T06:03:59.045Z,100243.84
2023-01-08T06:06:22.663Z,100244.56
2023-01-08T06:08:46.244Z,100242.69
2023-01-08T06:11:12.453Z,100237.59
2023-01-08T06:13:37.896Z,100238.72
2023-01-08T06:16:03.045Z,100233.72
2023-01-08T06:18:26.693Z,100235.25
2023-01-08T06:20:51.595Z,100229.41
2023-01-08T06:23:15.133Z,100235.00
2023-01-08T06:25:38.819Z,100236.34
2023-01-08T06:28:02.358Z,100226.78
2023-01-08T06:30:25.884Z,100232.69
2023-01-08T06:32:49.604Z,100234.50
2023-01-08T06:35:13.364Z,100232.16
2023-01-08T06:37:38.324Z,100227.59
2023-01-08T06:40:01.937Z,100223.09
2023-01-08T06:42:25.555Z,100219.38
2023-01-08T06:44:49.060Z,100228.28
2023-01-08T06:47:12.690Z,100227.81
2023-01-08T06:49:36.260Z,100221.38
2023-01-08T06:51:59.827Z,100224.66
2023-01-08T06:54:24.835Z,100222.09
2023-01-08T06:56:53.919Z,100217.38
2023-01-08T06:59:17.910Z,100222.72
2023-01-08T07:01:41.593Z,100224.44
2023-01-08T07:04:05.391Z,100226.88
2023-01-08T07:06:28.905Z,100225.44
2023-01-08T07:08:52.521Z,100231.38
2023-01-08T07:11:18.440Z,100227.00
2023-01-08T07:13:42.128Z,100232.47
2023-01-08T07:16:09.543Z,100223.47
2023-01-08T07:18:33.165Z,100219.22
2023-01-08T07:20:56.662Z,100226.75
2023-01-08T07:23:20.285Z,100216.56
2023-01-08T07:25:43.815Z,100208.41
2023-01-08T07:28:13.756Z,100213.28
2023-01-08T07:30:37.390Z,100220.81
2023-01-08T07:33:01.277Z,100212.78
2023-01-08T07:35:24.863Z,100216.66
2023-01-08T07:37:48.405Z,100218.38
2023-01-08T07:40:13.670Z,100228.22
2023-01-08T07:42:37.256Z,100232.59
2023-01-08T07:45:02.248Z,100244.53
2023-01-08T07:47:25.835Z,100232.97
2023-01-08T07:49:49.433Z,100232.00
2023-01-08T07:52:13.010Z,100239.66
2023-01-08T07:54:36.605Z,100236.88
2023-01-08T07:57:00.110Z,100241.94
2023-01-08T07:59:23.831Z,100237.34
2023-01-08T08:01:48.928Z,100234.91
2023-01-08T08:04:12.908Z,100238.19
2023-01-08T08:06:36.497Z,100235.88
2023-01-08T08:09:00.517Z,100236.88
2023-01-08T08:11:24.184Z,100229.34
2023-01-08T08:13:47.853Z,100225.66
2023-01-08T08:16:11.961Z,100221.41
2023-01-08T08:18:36.930Z,100211.56
2023-01-08T08:21:00.501Z,100210.09
2023-01-08T08:23:24.081Z,100213.00
2023-01-08T08:25:47.613Z,100210.47
2023-01-08T08:28:12.876Z,100228.56
2023-01-08T08:30:37.537Z,100215.41
2023-01-08T08:33:03.803Z,100215.06
2023-01-08T08:35:29.781Z,100209.84
2023-01-08T08:37:53.393Z,100204.97
2023-01-08T08:40:17.178Z,100204.88
2023-01-08T08:42:40.848Z,100205.84
2023-01-08T08:45:04.899Z,100194.03
2023-01-08T08:47:28.468Z,100192.47
2023-01-08T08:49:52.016Z,100189.03
2023-01-08T08:52:17.006Z,100182.19
2023-01-08T08:54:41.684Z,100185.88
2023-01-08T08:57:05.557Z,100194.97
2023-01-08T08:59:29.066Z,100195.03
2023-01-08T09:01:52.759Z,100197.59
2023-01-08T09:04:16.420Z,100189.22
2023-01-08T09:06:40.043Z,100189.78
2023-01-08T09:09:05.380Z,100195.34
2023-01-08T09:11:29.076Z,100187.22
2023-01-08T09:13:52.578Z,100183.91
2023-01-08T09:16:16.264Z,100181.50
2023-01-08T09:18:39.853Z,100181.03
2023-01-08T09:21:07.140Z,100173.94
2023-01-08T09:23:30.672Z,100171.38
2023-01-08T09:26:02.073Z,100164.50
2023-01-08T09:28:25.635Z,100159.34
2023-01-08T09:30:49.154Z,100158.63
2023-01-08T09:33:12.721Z,100155.66
2023-01-08T09:35:36.314Z,100167.34
2023-01-08T09:38:00.172Z,100172.41
2023-01-08T09:40:26.855Z,100177.94
2023-01-08T09:42:56.856Z,100186.94
2023-01-08T09:45:29.363Z,100185.00
2023-01-08T09:47:53.476Z,100171.97
2023-01-08T09:50:17.217Z,100180.53
2023-01-08T09:52:43.538Z,100187.59
2023-01-08T09:55:14.607Z,100189.25
2023-01-08T09:57:38.285Z,100198.31
2023-01-08T10:00:03.317Z,100204.84
2023-01-08T10:02:31.252Z,100196.22
2023-01-08T10:04:58.196Z,100194.66
2023-01-08T10:07:25.527Z,100189.53
2023-01-08T10:09:50.835Z,100193.16
2023-01-08T10:12:15.126Z,100180.44
2023-01-08T10:14:48.037Z,100185.53
2023-01-08T10:17:25.900Z,100177.19
2023-01-08T10:19:49.511Z,100171.09
2023-01-08T10:22:18.244Z,100167.06
2023-01-08T10:24:43.263Z,100167.53
2023-01-08T10:27:10.198Z,100156.25
2023-01-08T10:29:33.813Z,100156.16
2023-01-08T10:31:59.316Z,100150.09
2023-01-08T10:34:34.351Z,100147.78
2023-01-08T10:36:58.254Z,100135.88
2023-01-08T10:39:26.086Z,100142.91
2023-01-08T10:41:50.497Z,100141.34
2023-01-08T10:44:19.246Z,100134.91
2023-01-08T10:46:45.489Z,100129.66
2023-01-08T10:49:17.301Z,100133.25
2023-01-08T10:51:51.568Z,100129.97
2023-01-08T10:54:27.766Z,100137.00
2023-01-08T10:56:51.297Z,100126.00
2023-01-08T10:59:20.596Z,100121.16
2023-01-08T11:01:49.121Z,100122.88
2023-01-08T11:04:24.606Z,100123.66
2023-01-08T11:06:50.117Z,100116.69
2023-01-08T11:09:23.765Z,100125.22
2023-01-08T11:11:47.602Z,100114.94
2023-01-08T11:14:23.337Z,100111.75
2023-01-08T11:16:48.184Z,100109.38
2023-01-08T11:19:21.088Z,100104.91
2023-01-08T11:21:57.442Z,100098.22
2023-01-08T11:24:25.946Z,100100.94
2023-01-08T11:26:54.661Z,100098.13
2023-01-08T11:29:24.308Z,100096.53
2023-01-08T11:31:55.798Z,100097.09
2023-01-08T11:34:27.661Z,100088.72
2023-01-08T11:36:58.159Z,100076.78
2023-01-08T11:39:21.818Z,100073.53
2023-01-08T11:42:09.315Z,100064.03
2023-01-08T11:44:43.532Z,100067.59
2023-01-08T11:47:16.200Z,100077.59
2023-01-08T11:49:59.249Z,100083.81
2023-01-08T11:52:44.504Z,100085.16
2023-01-08T11:55:45.274Z,100066.06
2023-01-08T11:58:24.634Z,100074.19
2023-01-08T12:01:18.770Z,100059.84
2023-01-08T12:03:46.780Z,100059.44
2023-01-08T12:06:25.493Z,100063.38
2023-01-08T12:09:04.381Z,100059.91
2023-01-08T12:11:30.755Z,100072.91
2023-01-08T12:14:12.241Z,100051.53
2023-01-08T12:17:01.963Z,100049.59
2023-01-08T12:19:47.298Z,100046.06
2023-01-08T12:22:28.303Z,100041.94
2023-01-08T12:25:43.157Z,100043.22
2023-01-08T12:28:28.723Z,100038.84
2023-01-08T12:31:21.098Z,100026.88
2023-01-08T12:33:49.792Z,100023.63
2023-01-08T12:36:28.326Z,100030.94
2023-01-08T12:38:58.961Z,100031.94
2023-01-08T12:41:26.239Z,100031.50
2023-01-08T12:43:56.205Z,100029.25
2023-01-08T12:46:20.289Z,100031.53
2023-01-08T12:48:46.549Z,100038.84
2023-01-08T12:51:18.270Z,100032.03
2023-01-08T12:53:52.364Z,100024.03
2023-01-08T12:56:21.423Z,100028.81
2023-01-08T12:59:06.330Z,100023.72
2023-01-08T13:01:42.572Z,100017.94
2023-01-08T13:04:09.881Z,100021.31
2023-01-08T13:09:01.519Z,100017.66
2023-01-08T13:11:31.592Z,100010.63
2023-01-08T13:14:08.390Z,100016.22
2023-01-08T13:16:40.211Z,100017.66
2023-01-08T13:19:05.415Z,100017.38
2023-01-08T13:21:36.170Z,100026.41
2023-01-08T13:24:23.400Z,100019.66
2023-01-08T13:26:47.688Z,100014.25
2023-01-08T13:29:39.887Z,100010.59
2023-01-08T13:32:03.522Z,100013.25
2023-01-08T13:34:40.672Z,100011.03
2023-01-08T13:37:04.241Z,100010.56
2023-01-08T13:39:36.639Z,100008.88
2023-01-08T13:42:07.023Z,100001.78
2023-01-08T13:44:35.002Z,100007.41
2023-01-08T13:47:01.075Z,99993.34
2023-01-08T13:49:31.533Z,99995.19
2023-01-08T13:51:55.395Z,99984.88
2023-01-08T13:54:31.393Z,99987.97
2023-01-08T13:57:04.198Z,99982.19
2023-01-08T13:59:40.868Z,99986.28
2023-01-08T14:02:05.143Z,99985.44
2023-01-08T14:04:29.129Z,99982.47
2023-01-08T14:06:52.854Z,99983.19
2023-01-08T14:09:24.088Z,99976.69
2023-01-08T14:11:50.573Z,99981.38
2023-01-08T14:14:16.112Z,99982.75
2023-01-08T14:16:42.311Z,99978.69
2023-01-08T14:19:06.874Z,99977.50
2023-01-08T14:21:31.045Z,99976.53
2023-01-08T14:23:55.107Z,99966.78
2023-01-08T14:26:35.605Z,99973.00
2023-01-08T14:29:01.650Z,99982.25
2023-01-08T14:31:27.839Z,99982.72
2023-01-08T14:33:54.958Z,99974.53
2023-01-08T14:36:19.096Z,99981.06
2023-01-08T14:38:42.920Z,99973.94
2023-01-08T14:41:09.397Z,99980.03
2023-01-08T14:43:40.002Z,99976.56
2023-01-08T14:46:04.379Z,99973.38
2023-01-08T14:48:40.522Z,99973.56
2023-01-08T14:51:09.100Z,99971.88
2023-01-08T14:53:36.819Z,99967.34
2023-01-08T14:56:01.633Z,99974.16
2023-01-08T14:58:28.572Z,99972.44
2023-01-08T15:00:57.649Z,99980.44
2023-01-08T15:03:37.507Z,99973.75
2023-01-08T15:06:01.617Z,99971.53
2023-01-08T15:08:28.913Z,99974.44
2023-01-08T15:11:00.603Z,99971.31
2023-01-08T15:13:26.005Z,99976.28
2023-01-08T15:15:57.498Z,99967.13
2023-01-08T15:18:21.215Z,99957.38
2023-01-08T15:20:46.702Z,99970.34
2023-01-08T15:23:30.087Z,99959.63
2023-01-08T15:25:55.583Z,99965.22
2023-01-08T15:28:21.686Z,99961.81
2023-01-08T15:30:47.676Z,99965.84
2023-01-08T15:33:20.804Z,99955.63
2023-01-08T15:35:44.565Z,99965.03
2023-01-08T15:38:08.930Z,99963.47
2023-01-08T15:40:33.894Z,99952.44
2023-01-08T15:43:12.356Z,99956.09
2023-01-08T15:45:36.706Z,99963.19
2023-01-08T15:48:00.344Z,99962.41
2023-01-08T15:50:24.795Z,99963.28
2023-01-08T15:52:48.926Z,99966.25
2023-01-08T15:55:19.085Z,99970.00
2023-01-08T15:57:44.245Z,99973.97
2023-01-08T16:00:10.417Z,99977.34
2023-01-08T16:02:44.886Z,99986.03
2023-01-08T16:05:11.478Z,99981.88
2023-01-08T16:07:35.216Z,99971.50
2023-01-08T16:09:58.912Z,99965.50
2023-01-08T16:12:22.465Z,99965.97
2023-01-08T16:14:47.482Z,99962.22
2023-01-08T16:17:11.077Z,99972.91
2023-01-08T16:19:34.885Z,99971.00
2023-01-08T16:21:58.477Z,99967.72
2023-01-08T16:24:22.013Z,99968.47
2023-01-08T16:26:45.762Z,99971.03
2023-01-08T16:29:09.338Z,99958.41
2023-01-08T16:31:35.850Z,99962.81
2023-01-08T16:34:03.548Z,99958.84
2023-01-08T16:36:27.065Z,99944.72
2023-01-08T16:38:50.617Z,99946.31
2023-01-08T16:41:14.169Z,99950.81
2023-01-08T16:43:43.104Z,99942.25
2023-01-08T16:46:13.952Z,99948.53
2023-01-08T16:48:39.013Z,99950.28
2023-01-08T16:51:06.716Z,99949.69
2023-01-08T16:53:30.341Z,99957.31
2023-01-08T16:55:53.914Z,99950.25
2023-01-08T16:58:17.497Z,99944.34
2023-01-08T17:00:41.171Z,99938.56
2023-01-08T17:03:06.570Z,99930.41
2023-01-08T17:05:31.685Z,99930.22
2023-01-08T17:07:56.515Z,99926.31
2023-01-08T17:10:20.236Z,99928.28
2023-01-08T17:12:43.786Z,99911.97
2023-01-08T17:15:08.981Z,99914.16
2023-01-08T17:17:33.205Z,99913.03
2023-01-08T17:19:56.708Z,99913.66
2023-01-08T17:22:22.287Z,99913.03
2023-01-08T17:24:45.860Z,99904.97
2023-01-08T17:27:11.310Z,99901.47
2023-01-08T17:29:35.055Z,99906.44
2023-01-08T17:31:58.661Z,99906.50
2023-01-08T17:34:22.181Z,99901.69
2023-01-08T17:36:45.795Z,99891.78
2023-01-08T17:39:13.043Z,99886.41
2023-01-08T17:41:54.973Z,99896.16
2023-01-08T17:44:18.634Z,99901.00
2023-01-08T17:46:45.232Z,99907.06
2023-01-08T17:49:09.528Z,99894.28
2023-01-08T17:51:33.573Z,99888.94
2023-01-08T17:53:58.257Z,99886.91
2023-01-08T17:56:23.239Z,99883.16
2023-01-08T17:58:49.858Z,99878.97
2023-01-08T18:01:13.825Z,99878.16
2023-01-08T18:03:37.520Z,99882.34
2023-01-08T18:06:07.070Z,99877.19
2023-01-08T18:08:30.662Z,99875.88
2023-01-08T18:10:54.219Z,99881.41
2023-01-08T18:13:19.202Z,99882.53
2023-01-08T18:15:42.793Z,99885.41
2023-01-08T18:18:06.679Z,99881.09
2023-01-08T18:20:30.691Z,99880.63
2023-01-08T18:22:54.368Z,99880.91
2023-01-08T18:25:18.170Z,99876.25
2023-01-08T18:27:41.750Z,99873.00
2023-01-08T18:30:08.976Z,99875.00
2023-01-08T18:32:32.571Z,99877.25
2023-01-08T18:34:56.253Z,99869.50
2023-01-08T18:37:19.928Z,99866.63
2023-01-08T18:39:43.500Z,99868.78
2023-01-08T18:42:24.416Z,99870.03
2023-01-08T18:44:48.458Z,99863.13
2023-01-08T18:47:14.872Z,99861.44
2023-01-08T18:49:38.671Z,99851.03
2023-01-08T18:52:02.253Z,99854.31
2023-01-08T18:54:25.851Z,99839.91
2023-01-08T18:56:51.105Z,99847.53
2023-01-08T18:59:14.962Z,99853.72
2023-01-08T19:01:40.126Z,99845.78
2023-01-08T19:04:05.561Z,99839.06
2023-01-08T19:06:29.548Z,99840.16
2023-01-08T19:08:53.299Z,99850.59
2023-01-08T19:11:17.495Z,99846.94
2023-01-08T19:13:41.758Z,99837.09
2023-01-08T19:16:05.790Z,99841.31
2023-01-08T19:18:29.360Z,99846.56
2023-01-08T19:20:54.301Z,99849.03
2023-01-08T19:23:17.940Z,99848.38
2023-01-08T19:25:42.068Z,99844.66
2023-01-08T19:28:06.174Z,99841.75
2023-01-08T19:30:30.640Z,99851.50
2023-01-08T19:32:54.188Z,99847.72
2023-01-08T19:35:17.939Z,99843.09
2023-01-08T19:37:43.102Z,99850.75
2023-01-08T19:40:08.530Z,99845.38
2023-01-08T19:42:49.906Z,99839.31
2023-01-08T19:45:13.771Z,99842.84
2023-01-08T19:47:37.293Z,99838.59
2023-01-08T19:50:00.954Z,99841.53
2023-01-08T19:52:24.511Z,99836.88
2023-01-08T19:54:50.105Z,99838.72
2023-01-08T19:57:14.085Z,99835.13
2023-01-08T19:59:37.778Z,99828.69
2023-01-08T20:02:01.384Z,99826.13
2023-01-08T20:04:25.880Z,99822.78
2023-01-08T20:06:49.527Z,99808.81
2023-01-08T20:09:13.324Z,99805.28
2023-01-08T20:11:38.305Z,99803.06
2023-01-08T20:14:05.291Z,99799.25
2023-01-08T20:16:29.781Z,99794.00
2023-01-08T20:18:58.014Z,99791.44
2023-01-08T20:21:24.035Z,99791.78
2023-01-08T20:23:47.982Z,99790.19
2023-01-08T20:26:14.508Z,99787.47
2023-01-08T20:28:40.458Z,99787.53
2023-01-08T20:31:09.078Z,99787.16
2023-01-08T20:33:32.786Z,99790.41
2023-01-08T20:35:56.313Z,99776.44
2023-01-08T20:38:20.210Z,99778.16
2023-01-08T20:40:43.755Z,99783.22
2023-01-08T20:43:07.365Z,99783.16
2023-01-08T20:45:32.379Z,99779.22
2023-01-08T20:47:56.052Z,99779.19
2023-01-08T20:50:20.556Z,99772.63
2023-01-08T20:52:44.208Z,99771.84
2023-01-08T20:55:09.191Z,99768.13
2023-01-08T20:57:32.801Z,99770.84
2023-01-08T20:59:56.356Z,99776.16
2023-01-08T21:02:21.642Z,99766.66
2023-01-08T21:04:45.185Z,99762.56
2023-01-08T21:07:09.033Z,99764.63
2023-01-08T21:09:32.576Z,99757.19
2023-01-08T21:11:56.150Z,99763.81
2023-01-08T21:14:19.762Z,99760.16
2023-01-08T21:16:43.402Z,99749.34
2023-01-08T21:19:10.293Z,99746.09
2023-01-08T21:21:40.023Z,99744.91
2023-01-08T21:24:08.912Z,99738.59
2023-01-08T21:26:33.755Z,99746.94
2023-01-08T21:28:57.540Z,99743.88
2023-01-08T21:31:23.489Z,99745.53
2023-01-08T21:33:48.967Z,99745.31
2023-01-08T21:36:16.453Z,99735.09
2023-01-08T21:38:40.727Z,99733.16
2023-01-08T21:41:07.415Z,99732.91
2023-01-08T21:43:48.864Z,99734.78
2023-01-08T21:46:12.643Z,99731.34
2023-01-08T21:48:36.235Z,99733.47
2023-01-08T21:50:59.845Z,99743.41
2023-01-08T21:53:33.612Z,99733.94
2023-01-08T21:56:00.171Z,99730.28
2023-01-08T21:58:23.670Z,99728.28
2023-01-08T22:00:47.336Z,99721.47
2023-01-08T22:03:10.882Z,99719.19
2023-01-08T22:05:34.452Z,99710.03
2023-01-08T22:07:57.961Z,99711.09
2023-01-08T22:10:23.138Z,99701.47
2023-01-08T22:12:46.675Z,99702.75
2023-01-08T22:15:11.246Z,99691.06
2023-01-08T22:17:34.783Z,99698.13
2023-01-08T22:20:00.281Z,99692.06
2023-01-08T22:22:24.102Z,99687.41
2023-01-08T22:24:47.739Z,99689.31
2023-01-08T22:27:12.731Z,99681.41
2023-01-08T22:29:36.658Z,99674.44
2023-01-08T22:32:00.185Z,99680.25
2023-01-08T22:34:23.894Z,99676.19
2023-01-08T22:36:48.173Z,99668.34
2023-01-08T22:39:12.641Z,99668.97
2023-01-08T22:41:36.174Z,99671.00
2023-01-08T22:44:01.170Z,99666.41
2023-01-08T22:46:26.235Z,99669.31
2023-01-08T22:48:49.815Z,99666.41
2023-01-08T22:51:13.464Z,99660.28
2023-01-08T22:53:37.180Z,99663.34
2023-01-08T22:56:00.888Z,99662.00
2023-01-08T22:58:24.493Z,99668.88
2023-01-08T23:00:49.451Z,99662.41
2023-01-08T23:03:13.941Z,99657.06
2023-01-08T23:05:38.081Z,99652.53
2023-01-08T23:08:01.715Z,99651.03
2023-01-08T23:10:26.039Z,99651.22
2023-01-08T23:12:51.232Z,99651.47
2023-01-08T23:15:14.744Z,99646.59
2023-01-08T23:17:51.562Z,99644.50
2023-01-08T23:20:19.019Z,99642.44
2023-01-08T23:22:42.630Z,99638.19
2023-01-08T23:25:07.461Z,99635.69
2023-01-08T23:27:33.267Z,99622.94
2023-01-08T23:29:57.127Z,99628.91
2023-01-08T23:32:20.667Z,99625.31
2023-01-08T23:34:45.675Z,99620.88
2023-01-08T23:37:09.336Z,99613.72
2023-01-08T23:39:33.104Z,99613.81
2023-01-08T23:41:57.299Z,99617.59
2023-01-08T23:44:21.034Z,99621.94
2023-01-08T23:46:44.580Z,99612.72
2023-01-08T23:49:08.491Z,99616.50
2023-01-08T23:51:33.436Z,99615.16
2023-01-08T23:53:57.184Z,99609.38
2023-01-08T23:56:22.235Z,99603.31
2023-01-08T23:58:47.633Z,99603.03
